createdAt,value
2018-05-04T00:00:47.442Z,11.00
2018-05-04T00:01:47.412Z,10.94
2018-05-04T00:02:47.382Z,10.94
2018-05-04T00:03:47.358Z,10.94
2018-05-04T00:04:47.333Z,10.97
2018-05-04T00:05:47.306Z,10.96
2018-05-04T00:06:47.277Z,10.93
2018-05-04T00:07:47.249Z,10.97
2018-05-04T00:08:47.225Z,10.97
2018-05-04T00:09:47.205Z,10.89
2018-05-04T00:10:47.178Z,10.90
2018-05-04T00:11:47.149Z,10.74
2018-05-04T00:12:47.125Z,10.76
2018-05-04T00:13:47.096Z,10.68
2018-05-04T00:14:47.067Z,10.69
2018-05-04T00:15:47.050Z,10.69
2018-05-04T00:16:47.015Z,10.81
2018-05-04T00:17:46.999Z,10.81
2018-05-04T00:18:46.971Z,10.79
2018-05-04T00:19:46.938Z,10.75
2018-05-04T00:20:46.918Z,10.79
2018-05-04T00:21:46.894Z,10.75
2018-05-04T00:22:46.861Z,10.72
2018-05-04T00:23:46.864Z,10.76
2018-05-04T00:24:46.811Z,10.74
2018-05-04T00:25:46.781Z,10.60
2018-05-04T00:26:46.763Z,10.67
2018-05-04T00:27:46.731Z,10.60
2018-05-04T00:28:46.709Z,10.63
2018-05-04T00:29:46.681Z,10.60
2018-05-04T00:30:46.659Z,10.63
2018-05-04T00:31:46.625Z,10.51
2018-05-04T00:32:46.605Z,10.51
2018-05-04T00:33:46.579Z,10.48
2018-05-04T00:34:46.550Z,10.51
2018-05-04T00:35:46.529Z,10.48
2018-05-04T00:36:46.499Z,10.42
2018-05-04T00:37:46.471Z,10.34
2018-05-04T00:38:46.443Z,10.49
2018-05-04T00:39:46.420Z,10.44
2018-05-04T00:40:46.394Z,10.31
2018-05-04T00:41:46.372Z,10.38
2018-05-04T00:42:46.345Z,10.40
2018-05-04T00:43:46.314Z,10.40
2018-05-04T00:44:46.288Z,10.37
2018-05-04T00:45:46.263Z,10.42
2018-05-04T00:46:46.234Z,10.37
2018-05-04T00:47:46.218Z,10.38
2018-05-04T00:48:46.244Z,10.41
2018-05-04T00:49:46.162Z,10.41
2018-05-04T00:50:46.131Z,10.38
2018-05-04T00:51:46.102Z,10.38
2018-05-04T00:52:46.084Z,10.42
2018-05-04T00:53:46.062Z,10.28
2018-05-04T00:54:46.026Z,10.41
2018-05-04T00:55:46.008Z,10.33
2018-05-04T00:56:45.971Z,10.33
2018-05-04T00:57:45.955Z,10.41
2018-05-04T00:58:45.927Z,10.34
2018-05-04T00:59:45.893Z,10.40
2018-05-04T01:00:45.875Z,10.35
2018-05-04T01:01:45.845Z,10.35
2018-05-04T01:02:45.824Z,10.41
2018-05-04T01:03:45.789Z,10.26
2018-05-04T01:04:45.765Z,10.26
2018-05-04T01:05:45.736Z,10.17
2018-05-04T01:06:45.716Z,10.20
2018-05-04T01:07:45.693Z,10.10
2018-05-04T01:08:45.656Z,10.13
2018-05-04T01:09:45.639Z,10.16
2018-05-04T01:10:45.608Z,10.17
2018-05-04T01:11:45.588Z,10.12
2018-05-04T01:12:45.557Z,10.13
2018-05-04T01:13:45.535Z,10.13
2018-05-04T01:14:45.504Z,10.10
2018-05-04T01:15:45.484Z,10.15
2018-05-04T01:16:45.452Z,10.15
2018-05-04T01:17:45.426Z,10.04
2018-05-04T01:18:45.403Z,9.97
2018-05-04T01:19:45.377Z,10.04
2018-05-04T01:20:45.354Z,10.09
2018-05-04T01:21:45.315Z,10.04
2018-05-04T01:22:45.301Z,9.97
2018-05-04T01:23:45.272Z,10.01
2018-05-04T01:24:45.239Z,10.05
2018-05-04T01:25:45.215Z,10.02
2018-05-04T01:26:45.198Z,9.91
2018-05-04T01:27:45.161Z,9.97
2018-05-04T01:28:45.141Z,9.97
2018-05-04T01:29:45.109Z,9.99
2018-05-04T01:30:45.088Z,9.95
2018-05-04T01:31:45.059Z,9.89
2018-05-04T01:32:45.036Z,9.92
2018-05-04T01:33:45.015Z,9.87
2018-05-04T01:34:44.980Z,9.91
2018-05-04T01:35:44.957Z,9.94
2018-05-04T01:36:44.924Z,9.86
2018-05-04T01:37:44.905Z,9.97
2018-05-04T01:38:44.880Z,9.92
2018-05-04T01:39:44.853Z,9.94
2018-05-04T01:40:44.821Z,9.92
2018-05-04T01:41:44.799Z,9.92
2018-05-04T01:42:44.767Z,9.86
2018-05-04T01:43:44.749Z,9.92
2018-05-04T01:44:44.718Z,9.82
2018-05-04T01:45:44.690Z,9.87
2018-05-04T01:46:44.671Z,9.84
2018-05-04T01:47:44.638Z,9.84
2018-05-04T01:48:44.614Z,9.84
2018-05-04T01:49:44.590Z,9.76
2018-05-04T01:50:44.562Z,9.74
2018-05-04T01:51:44.538Z,9.72
2018-05-04T01:52:44.539Z,9.76
2018-05-04T01:53:44.483Z,9.68
2018-05-04T01:54:44.457Z,9.65
2018-05-04T01:55:44.427Z,9.66
2018-05-04T01:56:44.399Z,9.72
2018-05-04T01:57:44.381Z,9.65
2018-05-04T01:58:44.352Z,9.62
2018-05-04T01:59:44.325Z,9.62
2018-05-04T02:00:44.309Z,9.66
2018-05-04T02:01:44.270Z,9.58
2018-05-04T02:02:44.246Z,9.59
2018-05-04T02:03:44.217Z,9.62
2018-05-04T02:04:44.190Z,9.61
2018-05-04T02:05:44.171Z,9.62
2018-05-04T02:06:44.144Z,9.62
2018-05-04T02:07:44.144Z,9.66
2018-05-04T02:08:44.086Z,9.64
2018-05-04T02:09:44.070Z,9.64
2018-05-04T02:10:44.033Z,9.61
2018-05-04T02:11:44.010Z,9.59
2018-05-04T02:12:43.988Z,9.51
2018-05-04T02:13:43.952Z,9.55
2018-05-04T02:14:43.924Z,9.51
2018-05-04T02:15:43.912Z,9.46
2018-05-04T02:16:43.869Z,9.46
2018-05-04T02:17:43.853Z,9.44
2018-05-04T02:18:43.825Z,9.44
2018-05-04T02:19:43.800Z,9.41
2018-05-04T02:20:43.771Z,9.46
2018-05-04T02:21:43.746Z,9.47
2018-05-04T02:22:43.717Z,9.47
2018-05-04T02:23:43.696Z,9.48
2018-05-04T02:24:43.665Z,9.46
2018-05-04T02:25:43.645Z,9.43
2018-05-04T02:26:43.614Z,9.46
2018-05-04T02:27:43.596Z,9.48
2018-05-04T02:28:43.561Z,9.43
2018-05-04T02:29:43.549Z,9.43
2018-05-04T02:30:43.515Z,9.41
2018-05-04T02:31:43.479Z,9.40
2018-05-04T02:32:43.462Z,9.44
2018-05-04T02:33:43.431Z,9.34
2018-05-04T02:34:43.406Z,9.37
2018-05-04T02:35:43.381Z,9.26
2018-05-04T02:36:43.351Z,9.21
2018-05-04T02:37:43.323Z,9.19
2018-05-04T02:38:43.298Z,9.23
2018-05-04T02:39:43.271Z,9.26
2018-05-04T02:40:43.246Z,9.22
2018-05-04T02:41:43.219Z,9.14
2018-05-04T02:42:43.192Z,9.23
2018-05-04T02:43:43.166Z,9.18
2018-05-04T02:44:43.140Z,9.23
2018-05-04T02:45:43.118Z,9.21
2018-05-04T02:46:43.085Z,9.25
2018-05-04T02:47:43.066Z,9.22
2018-05-04T02:48:43.034Z,9.31
2018-05-04T02:49:43.013Z,9.22
2018-05-04T02:50:42.987Z,9.11
2018-05-04T02:51:42.953Z,8.95
2018-05-04T02:52:42.928Z,8.87
2018-05-04T02:53:42.905Z,8.81
2018-05-04T02:54:42.877Z,8.81
2018-05-04T02:55:42.852Z,8.92
2018-05-04T02:56:42.828Z,8.99
2018-05-04T02:57:42.793Z,8.99
2018-05-04T02:58:42.772Z,8.97
2018-05-04T02:59:42.745Z,8.88
2018-05-04T03:00:42.721Z,9.00
2018-05-04T03:01:42.697Z,9.03
2018-05-04T03:02:42.663Z,8.95
2018-05-04T03:03:42.641Z,9.00
2018-05-04T03:04:42.617Z,8.94
2018-05-04T03:05:42.582Z,9.02
2018-05-04T03:06:42.563Z,9.04
2018-05-04T03:07:42.535Z,9.02
2018-05-04T03:08:42.503Z,8.97
2018-05-04T03:09:42.483Z,9.10
2018-05-04T03:10:42.451Z,9.11
2018-05-04T03:11:42.434Z,9.06
2018-05-04T03:12:42.403Z,8.99
2018-05-04T03:13:42.374Z,9.04
2018-05-04T03:14:42.354Z,9.00
2018-05-04T03:15:42.319Z,8.95
2018-05-04T03:16:42.293Z,8.99
2018-05-04T03:17:42.270Z,8.99
2018-05-04T03:18:42.238Z,8.97
2018-05-04T03:19:42.222Z,9.00
2018-05-04T03:20:42.186Z,8.91
2018-05-04T03:21:42.169Z,8.92
2018-05-04T03:22:42.142Z,8.97
2018-05-04T03:23:42.109Z,8.95
2018-05-04T03:24:42.089Z,8.94
2018-05-04T03:25:42.054Z,8.85
2018-05-04T03:26:42.031Z,8.88
2018-05-04T03:27:42.008Z,8.91
2018-05-04T03:28:41.983Z,8.79
2018-05-04T03:29:41.949Z,8.74
2018-05-04T03:30:41.921Z,8.82
2018-05-04T03:31:41.900Z,8.76
2018-05-04T03:32:41.868Z,8.78
2018-05-04T03:33:41.847Z,8.71
2018-05-04T03:34:41.819Z,8.73
2018-05-04T03:35:41.797Z,8.70
2018-05-04T03:36:41.781Z,8.61
2018-05-04T03:37:41.741Z,8.66
2018-05-04T03:38:41.716Z,8.69
2018-05-04T03:39:41.687Z,8.71
2018-05-04T03:40:41.661Z,8.71
2018-05-04T03:41:41.633Z,8.69
2018-05-04T03:42:41.613Z,8.69
2018-05-04T03:43:41.582Z,8.64
2018-05-04T03:44:41.550Z,8.73
2018-05-04T03:45:41.527Z,8.73
2018-05-04T03:46:41.508Z,8.66
2018-05-04T03:47:41.478Z,8.64
2018-05-04T03:48:41.447Z,8.64
2018-05-04T03:49:41.427Z,8.73
2018-05-04T03:50:41.392Z,8.66
2018-05-04T03:51:41.376Z,8.60
2018-05-04T03:52:41.342Z,8.56
2018-05-04T03:53:41.321Z,8.61
2018-05-04T03:54:41.295Z,8.63
2018-05-04T03:55:41.261Z,8.53
2018-05-04T03:56:41.241Z,8.58
2018-05-04T03:57:41.207Z,8.51
2018-05-04T03:58:41.183Z,8.60
2018-05-04T03:59:41.159Z,8.66
2018-05-04T04:00:41.130Z,8.60
2018-05-04T04:01:41.100Z,8.56
2018-05-04T04:02:41.083Z,8.53
2018-05-04T04:03:41.051Z,8.56
2018-05-04T04:04:41.022Z,8.56
2018-05-04T04:05:41.006Z,8.49
2018-05-04T04:06:40.974Z,8.49
2018-05-04T04:07:41.018Z,8.52
2018-05-04T04:08:40.927Z,8.52
2018-05-04T04:09:40.893Z,8.51
2018-05-04T04:10:40.868Z,8.51
2018-05-04T04:11:40.841Z,8.51
2018-05-04T04:12:40.840Z,8.48
2018-05-04T04:13:40.789Z,8.44
2018-05-04T04:14:40.762Z,8.56
2018-05-04T04:15:40.731Z,8.51
2018-05-04T04:16:40.707Z,8.55
2018-05-04T04:17:40.687Z,8.56
2018-05-04T04:18:40.656Z,8.46
2018-05-04T04:19:40.629Z,8.38
2018-05-04T04:20:40.606Z,8.45
2018-05-04T04:21:40.572Z,8.49
2018-05-04T04:22:40.543Z,8.38
2018-05-04T04:23:40.528Z,8.42
2018-05-04T04:24:40.493Z,8.44
2018-05-04T04:25:40.491Z,8.55
2018-05-04T04:26:40.447Z,8.49
2018-05-04T04:27:40.414Z,8.56
2018-05-04T04:28:40.395Z,8.52
2018-05-04T04:29:40.357Z,8.49
2018-05-04T04:30:40.335Z,8.53
2018-05-04T04:31:40.312Z,8.48
2018-05-04T04:32:40.287Z,8.49
2018-05-04T04:33:40.254Z,8.51
2018-05-04T04:34:40.225Z,8.53
2018-05-04T04:35:40.202Z,8.55
2018-05-04T04:36:40.173Z,8.61
2018-05-04T04:37:40.147Z,8.63
2018-05-04T04:38:40.122Z,8.64
2018-05-04T04:39:40.098Z,8.66
2018-05-04T04:40:40.068Z,8.69
2018-05-04T04:41:40.046Z,8.70
2018-05-04T04:42:40.020Z,8.67
2018-05-04T04:43:47.168Z,8.70
2018-05-04T04:45:32.917Z,8.71
2018-05-04T04:46:32.789Z,8.74
2018-05-04T04:48:25.733Z,8.70
2018-05-04T04:49:25.675Z,8.69
2018-05-04T04:51:18.516Z,8.70
2018-05-04T04:52:18.457Z,8.71
2018-05-04T04:54:11.292Z,8.73
2018-05-04T04:55:11.266Z,8.92
2018-05-04T04:57:04.130Z,8.85
2018-05-04T04:58:04.069Z,8.84
2018-05-04T04:59:56.926Z,8.85
2018-05-04T05:00:56.875Z,8.85
2018-05-04T05:02:49.711Z,8.82
2018-05-04T05:03:49.677Z,8.88
2018-05-04T05:05:42.548Z,9.04
2018-05-04T05:06:42.479Z,8.95
2018-05-04T05:07:42.463Z,8.97
2018-05-04T05:08:42.428Z,8.85
2018-05-04T05:09:42.409Z,8.99
2018-05-04T05:10:42.377Z,8.97
2018-05-04T05:11:42.356Z,9.00
2018-05-04T05:12:42.328Z,8.92
2018-05-04T05:13:42.299Z,9.03
2018-05-04T05:14:42.278Z,8.95
2018-05-04T05:15:42.247Z,8.94
2018-05-04T05:16:42.225Z,9.02
2018-05-04T05:17:42.190Z,9.04
2018-05-04T05:18:42.172Z,9.02
2018-05-04T05:19:42.136Z,9.02
2018-05-04T05:20:42.119Z,9.02
2018-05-04T05:21:42.083Z,9.04
2018-05-04T05:22:42.064Z,9.08
2018-05-04T05:23:42.103Z,9.16
2018-05-04T05:24:42.011Z,9.18
2018-05-04T05:25:41.979Z,9.19
2018-05-04T05:26:41.960Z,9.22
2018-05-04T05:27:41.927Z,9.23
2018-05-04T05:28:41.896Z,9.26
2018-05-04T05:29:41.881Z,9.31
2018-05-04T05:30:41.849Z,9.28
2018-05-04T05:31:41.820Z,9.34
2018-05-04T05:32:41.798Z,9.28
2018-05-04T05:33:41.765Z,9.40
2018-05-04T05:34:41.741Z,9.44
2018-05-04T05:35:41.759Z,9.43
2018-05-04T05:36:41.684Z,9.41
2018-05-04T05:37:41.668Z,9.44
2018-05-04T05:38:41.636Z,9.41
2018-05-04T05:39:41.612Z,9.50
2018-05-04T05:40:41.582Z,9.51
2018-05-04T05:41:41.560Z,9.55
2018-05-04T05:42:41.537Z,9.54
2018-05-04T05:43:41.500Z,9.51
2018-05-04T05:44:41.484Z,9.54
2018-05-04T05:45:41.453Z,9.54
2018-05-04T05:46:41.421Z,9.65
2018-05-04T05:47:41.402Z,9.65
2018-05-04T05:48:41.370Z,9.62
2018-05-04T05:49:41.352Z,9.68
2018-05-04T05:50:41.325Z,9.73
2018-05-04T05:51:41.288Z,9.68
2018-05-04T05:52:41.265Z,9.73
2018-05-04T05:53:41.240Z,9.74
2018-05-04T05:54:41.219Z,9.72
2018-05-04T05:55:41.207Z,9.72
2018-05-04T05:56:41.162Z,9.82
2018-05-04T05:57:41.132Z,9.87
2018-05-04T05:58:41.108Z,9.84
2018-05-04T05:59:41.077Z,9.95
2018-05-04T06:00:41.055Z,9.95
2018-05-04T06:01:41.039Z,9.94
2018-05-04T06:02:41.063Z,9.98
2018-05-04T06:03:40.977Z,10.01
2018-05-04T06:04:40.986Z,9.99
2018-05-04T06:05:40.919Z,10.05
2018-05-04T06:06:40.897Z,10.07
2018-05-04T06:07:40.867Z,10.15
2018-05-04T06:08:40.838Z,10.19
2018-05-04T06:09:40.820Z,10.19
2018-05-04T06:10:40.799Z,10.12
2018-05-04T06:11:40.766Z,10.15
2018-05-04T06:12:40.742Z,10.19
2018-05-04T06:13:40.708Z,10.19
2018-05-04T06:14:40.689Z,10.19
2018-05-04T06:15:40.696Z,10.25
2018-05-04T06:16:40.634Z,10.23
2018-05-04T06:17:40.602Z,10.23
2018-05-04T06:18:40.581Z,10.33
2018-05-04T06:19:40.555Z,10.26
2018-05-04T06:20:40.525Z,10.41
2018-05-04T06:21:40.503Z,10.40
2018-05-04T06:22:40.471Z,10.42
2018-05-04T06:23:40.448Z,10.38
2018-05-04T06:24:40.419Z,10.44
2018-05-04T06:25:40.413Z,10.38
2018-05-04T06:26:40.364Z,10.46
2018-05-04T06:27:40.345Z,10.51
2018-05-04T06:28:40.312Z,10.49
2018-05-04T06:29:40.293Z,10.51
2018-05-04T06:30:40.262Z,10.49
2018-05-04T06:31:40.232Z,10.60
2018-05-04T06:32:40.204Z,10.59
2018-05-04T06:33:40.190Z,10.63
2018-05-04T06:34:40.153Z,10.74
2018-05-04T06:35:40.130Z,10.67
2018-05-04T06:36:40.101Z,10.68
2018-05-04T06:37:40.082Z,10.79
2018-05-04T06:38:40.046Z,10.74
2018-05-04T06:39:40.078Z,10.94
2018-05-04T06:40:40.000Z,10.84
2018-05-04T06:41:39.971Z,10.99
2018-05-04T06:42:39.944Z,10.96
2018-05-04T06:43:39.920Z,11.07
2018-05-04T06:44:39.902Z,11.02
2018-05-04T06:45:39.915Z,11.07
2018-05-04T06:46:39.844Z,11.07
2018-05-04T06:47:39.809Z,11.17
2018-05-04T06:48:39.856Z,11.25
2018-05-04T06:49:39.761Z,11.22
2018-05-04T06:50:39.732Z,11.22
2018-05-04T06:51:39.705Z,11.17
2018-05-04T06:52:39.684Z,11.29
2018-05-04T06:53:39.660Z,11.27
2018-05-04T06:54:39.668Z,11.26
2018-05-04T06:55:39.609Z,11.35
2018-05-04T06:56:39.581Z,11.41
2018-05-04T06:57:39.549Z,11.43
2018-05-04T06:58:39.525Z,11.44
2018-05-04T06:59:39.496Z,11.50
2018-05-04T07:00:39.467Z,11.50
2018-05-04T07:01:39.450Z,11.55
2018-05-04T07:02:39.421Z,11.52
2018-05-04T07:03:39.391Z,11.57
2018-05-04T07:04:39.368Z,11.66
2018-05-04T07:05:39.346Z,11.66
2018-05-04T07:06:39.318Z,11.77
2018-05-04T07:07:39.291Z,11.78
2018-05-04T07:08:39.271Z,11.72
2018-05-04T07:09:39.233Z,11.83
2018-05-04T07:10:39.341Z,11.94
2018-05-04T07:11:39.189Z,11.87
2018-05-04T07:12:39.153Z,11.95
2018-05-04T07:13:39.136Z,11.90
2018-05-04T07:14:39.109Z,11.91
2018-05-04T07:15:39.075Z,11.97
2018-05-04T07:16:39.062Z,11.99
2018-05-04T07:17:39.024Z,12.12
2018-05-04T07:18:39.005Z,12.04
2018-05-04T07:19:38.970Z,12.09
2018-05-04T07:20:38.961Z,12.09
2018-05-04T07:21:38.919Z,12.02
2018-05-04T07:22:38.899Z,12.20
2018-05-04T07:23:38.872Z,12.07
2018-05-04T07:24:38.839Z,12.24
2018-05-04T07:25:38.824Z,12.17
2018-05-04T07:26:38.795Z,12.24
2018-05-04T07:27:38.762Z,12.22
2018-05-04T07:28:38.784Z,12.29
2018-05-04T07:29:38.765Z,12.39
2018-05-04T07:30:38.690Z,12.40
2018-05-04T07:31:38.664Z,12.53
2018-05-04T07:32:38.630Z,12.49
2018-05-04T07:33:38.613Z,12.57
2018-05-04T07:34:38.582Z,12.64
2018-05-04T07:35:38.560Z,12.55
2018-05-04T07:36:38.534Z,12.60
2018-05-04T07:37:38.513Z,12.65
2018-05-04T07:38:38.483Z,12.76
2018-05-04T07:39:38.452Z,12.83
2018-05-04T07:40:38.430Z,12.82
2018-05-04T07:41:38.402Z,12.85
2018-05-04T07:42:38.378Z,12.87
2018-05-04T07:43:38.347Z,12.87
2018-05-04T07:44:38.323Z,12.97
2018-05-04T07:45:38.293Z,12.98
2018-05-04T07:46:38.271Z,12.93
2018-05-04T07:47:38.250Z,13.05
2018-05-04T07:48:38.222Z,13.08
2018-05-04T07:49:38.193Z,13.09
2018-05-04T07:50:38.167Z,13.09
2018-05-04T07:51:38.141Z,13.23
2018-05-04T07:52:38.120Z,13.20
2018-05-04T07:53:38.085Z,13.22
2018-05-04T07:54:38.191Z,13.23
2018-05-04T07:55:38.041Z,13.25
2018-05-04T07:56:38.011Z,13.30
2018-05-04T07:57:37.986Z,13.31
2018-05-04T07:58:37.966Z,13.35
2018-05-04T07:59:37.929Z,13.46
2018-05-04T08:00:37.977Z,13.39
2018-05-04T08:01:37.880Z,13.44
2018-05-04T08:02:37.852Z,13.41
2018-05-04T08:03:37.833Z,13.47
2018-05-04T08:04:37.799Z,13.52
2018-05-04T08:05:37.780Z,13.60
2018-05-04T08:06:37.750Z,13.57
2018-05-04T08:07:37.730Z,13.60
2018-05-04T08:08:37.849Z,13.62
2018-05-04T08:09:37.678Z,13.75
2018-05-04T08:10:37.654Z,13.79
2018-05-04T08:11:37.619Z,13.77
2018-05-04T08:12:37.616Z,13.74
2018-05-04T08:13:37.567Z,13.72
2018-05-04T08:14:37.546Z,13.79
2018-05-04T08:15:37.518Z,13.85
2018-05-04T08:16:37.489Z,13.90
2018-05-04T08:17:37.472Z,14.00
2018-05-04T08:18:37.440Z,13.97
2018-05-04T08:19:37.419Z,13.97
2018-05-04T08:20:37.393Z,14.10
2018-05-04T08:21:37.361Z,14.11
2018-05-04T08:22:37.343Z,14.11
2018-05-04T08:23:37.312Z,14.23
2018-05-04T08:24:37.291Z,14.20
2018-05-04T08:25:37.264Z,14.28
2018-05-04T08:26:37.237Z,14.30
2018-05-04T08:27:37.214Z,14.33
2018-05-04T08:28:37.179Z,14.40
2018-05-04T08:29:37.164Z,14.40
2018-05-04T08:30:37.135Z,14.41
2018-05-04T08:31:37.107Z,14.45
2018-05-04T08:32:37.080Z,14.48
2018-05-04T08:33:37.142Z,14.54
2018-05-04T08:34:37.031Z,14.50
2018-05-04T08:35:37.003Z,14.47
2018-05-04T08:36:36.982Z,14.66
2018-05-04T08:37:36.955Z,14.68
2018-05-04T08:38:36.925Z,14.70
2018-05-04T08:39:36.906Z,14.70
2018-05-04T08:40:36.999Z,14.72
2018-05-04T08:41:36.877Z,14.69
2018-05-04T08:42:36.829Z,14.78
2018-05-04T08:43:36.805Z,14.86
2018-05-04T08:44:36.780Z,14.86
2018-05-04T08:45:36.750Z,14.85
2018-05-04T08:46:36.719Z,14.85
2018-05-04T08:47:36.702Z,14.88
2018-05-04T08:48:36.706Z,14.96
2018-05-04T08:49:36.668Z,14.96
2018-05-04T08:50:36.626Z,15.09
2018-05-04T08:51:36.592Z,15.06
2018-05-04T08:52:36.568Z,15.11
2018-05-04T08:53:36.587Z,15.19
2018-05-04T08:54:36.519Z,15.15
2018-05-04T08:55:36.495Z,15.19
2018-05-04T08:56:36.473Z,15.22
2018-05-04T08:57:36.451Z,15.19
2018-05-04T08:58:36.438Z,15.21
2018-05-04T08:59:36.409Z,15.19
2018-05-04T09:00:36.363Z,15.27
2018-05-04T09:01:36.341Z,15.18
2018-05-04T09:02:36.313Z,15.14
2018-05-04T09:03:36.291Z,15.27
2018-05-04T09:04:36.261Z,15.28
2018-05-04T09:05:36.328Z,15.33
2018-05-04T09:06:36.215Z,15.31
2018-05-04T09:07:36.214Z,15.31
2018-05-04T09:08:36.164Z,15.31
2018-05-04T09:09:36.135Z,15.33
2018-05-04T09:10:36.109Z,15.37
2018-05-04T09:11:36.089Z,15.29
2018-05-04T09:12:36.060Z,15.47
2018-05-04T09:13:36.041Z,15.44
2018-05-04T09:14:36.015Z,15.49
2018-05-04T09:15:35.982Z,15.52
2018-05-04T09:16:35.967Z,15.61
2018-05-04T09:17:35.931Z,15.64
2018-05-04T09:18:35.912Z,15.67
2018-05-04T09:19:35.882Z,15.57
2018-05-04T09:20:35.861Z,15.70
2018-05-04T09:21:35.833Z,15.67
2018-05-04T09:22:35.808Z,15.64
2018-05-04T09:23:35.786Z,15.61
2018-05-04T09:24:35.756Z,15.67
2018-05-04T09:25:35.733Z,15.79
2018-05-04T09:26:35.711Z,15.80
2018-05-04T09:27:35.683Z,15.80
2018-05-04T09:28:35.662Z,15.90
2018-05-04T09:29:35.629Z,15.83
2018-05-04T09:30:35.604Z,15.92
2018-05-04T09:31:35.585Z,15.88
2018-05-04T09:32:35.552Z,16.01
2018-05-04T09:33:35.537Z,15.95
2018-05-04T09:34:35.504Z,15.91
2018-05-04T09:35:35.479Z,15.92
2018-05-04T09:36:35.494Z,16.05
2018-05-04T09:37:35.430Z,15.98
2018-05-04T09:38:35.410Z,16.08
2018-05-04T09:39:35.377Z,16.09
2018-05-04T09:40:35.356Z,16.09
2018-05-04T09:41:35.327Z,16.20
2018-05-04T09:42:35.304Z,16.32
2018-05-04T09:43:35.553Z,16.20
2018-05-04T09:44:35.258Z,16.20
2018-05-04T09:45:35.234Z,16.29
2018-05-04T09:46:35.205Z,16.31
2018-05-04T09:47:35.177Z,16.32
2018-05-04T09:48:35.151Z,16.38
2018-05-04T09:49:35.133Z,16.32
2018-05-04T09:50:35.104Z,16.32
2018-05-04T09:51:35.074Z,16.35
2018-05-04T09:52:35.053Z,16.35
2018-05-04T09:53:35.031Z,16.38
2018-05-04T09:54:35.006Z,16.36
2018-05-04T09:55:34.978Z,16.41
2018-05-04T09:56:34.953Z,16.50
2018-05-04T09:57:34.932Z,16.39
2018-05-04T09:58:34.901Z,16.41
2018-05-04T09:59:34.880Z,16.51
2018-05-04T10:00:34.847Z,16.56
2018-05-04T10:01:34.832Z,16.51
2018-05-04T10:02:34.808Z,16.54
2018-05-04T10:03:34.814Z,16.54
2018-05-04T10:04:34.757Z,16.54
2018-05-04T10:05:34.729Z,16.68
2018-05-04T10:06:34.699Z,16.58
2018-05-04T10:07:34.697Z,16.53
2018-05-04T10:08:34.650Z,16.54
2018-05-04T10:09:34.633Z,16.54
2018-05-04T10:10:34.605Z,16.54
2018-05-04T10:11:34.611Z,16.56
2018-05-04T10:12:34.550Z,16.57
2018-05-04T10:13:34.523Z,16.58
2018-05-04T10:14:34.501Z,16.60
2018-05-04T10:15:34.477Z,16.58
2018-05-04T10:16:34.450Z,16.68
2018-05-04T10:17:34.430Z,16.78
2018-05-04T10:18:34.398Z,16.81
2018-05-04T10:19:34.382Z,16.84
2018-05-04T10:20:34.350Z,16.87
2018-05-04T10:21:34.332Z,16.89
2018-05-04T10:22:34.301Z,16.87
2018-05-04T10:23:34.271Z,16.86
2018-05-04T10:24:34.376Z,16.89
2018-05-04T10:25:34.228Z,16.94
2018-05-04T10:26:34.199Z,17.02
2018-05-04T10:27:34.183Z,17.05
2018-05-04T10:28:34.151Z,17.02
2018-05-04T10:29:34.133Z,17.01
2018-05-04T10:30:34.101Z,17.04
2018-05-04T10:31:34.082Z,17.01
2018-05-04T10:32:34.056Z,17.14
2018-05-04T10:33:34.029Z,17.12
2018-05-04T10:34:34.019Z,17.14
2018-05-04T10:35:33.980Z,17.14
2018-05-04T10:36:33.958Z,17.11
2018-05-04T10:37:33.928Z,17.12
2018-05-04T10:38:34.014Z,17.12
2018-05-04T10:39:33.879Z,17.11
2018-05-04T10:40:33.857Z,17.11
2018-05-04T10:41:33.831Z,17.24
2018-05-04T10:42:33.809Z,17.19
2018-05-04T10:43:33.777Z,17.19
2018-05-04T10:44:33.754Z,17.27
2018-05-04T10:45:33.729Z,17.27
2018-05-04T10:46:33.710Z,17.20
2018-05-04T10:47:33.677Z,17.23
2018-05-04T10:48:33.655Z,17.30
2018-05-04T10:49:33.634Z,17.33
2018-05-04T10:50:33.602Z,17.31
2018-05-04T10:51:33.587Z,17.30
2018-05-04T10:52:33.558Z,17.26
2018-05-04T10:53:33.532Z,17.38
2018-05-04T10:54:33.507Z,17.30
2018-05-04T10:55:33.481Z,17.26
2018-05-04T10:56:33.458Z,17.31
2018-05-04T10:57:33.437Z,17.31
2018-05-04T10:58:33.414Z,17.38
2018-05-04T10:59:33.383Z,17.34
2018-05-04T11:00:33.363Z,17.36
2018-05-04T11:01:33.339Z,17.44
2018-05-04T11:02:33.322Z,17.45
2018-05-04T11:03:33.299Z,17.49
2018-05-04T11:04:33.261Z,17.60
2018-05-04T11:05:33.241Z,17.57
2018-05-04T11:06:33.213Z,17.64
2018-05-04T11:07:33.186Z,17.63
2018-05-04T11:08:33.170Z,17.67
2018-05-04T11:09:33.134Z,17.65
2018-05-04T11:10:33.114Z,17.78
2018-05-04T11:11:33.087Z,17.80
2018-05-04T11:12:33.059Z,17.78
2018-05-04T11:13:33.039Z,17.83
2018-05-04T11:14:33.014Z,17.80
2018-05-04T11:15:32.989Z,17.83
2018-05-04T11:16:32.971Z,17.78
2018-05-04T11:17:32.939Z,17.76
2018-05-04T11:18:32.920Z,17.68
2018-05-04T11:19:32.917Z,17.79
2018-05-04T11:20:32.872Z,17.82
2018-05-04T11:21:32.840Z,17.89
2018-05-04T11:22:32.819Z,17.90
2018-05-04T11:23:32.790Z,17.94
2018-05-04T11:24:32.769Z,17.98
2018-05-04T11:25:32.744Z,17.97
2018-05-04T11:26:32.725Z,17.97
2018-05-04T11:27:32.691Z,17.97
2018-05-04T11:28:32.689Z,18.04
2018-05-04T11:29:32.647Z,18.01
2018-05-04T11:30:32.620Z,17.92
2018-05-04T11:31:32.601Z,17.87
2018-05-04T11:32:32.567Z,17.97
2018-05-04T11:33:32.551Z,18.00
2018-05-04T11:34:32.525Z,18.04
2018-05-04T11:35:32.503Z,18.10
2018-05-04T11:36:32.469Z,18.08
2018-05-04T11:37:32.472Z,18.03
2018-05-04T11:38:32.425Z,18.07
2018-05-04T11:39:32.414Z,18.05
2018-05-04T11:40:32.374Z,18.04
2018-05-04T11:41:32.357Z,18.07
2018-05-04T11:42:32.324Z,18.07
2018-05-04T11:43:32.326Z,18.08
2018-05-04T11:44:32.277Z,18.04
2018-05-04T11:45:32.258Z,18.15
2018-05-04T11:46:32.236Z,18.16
2018-05-04T11:47:32.200Z,18.28
2018-05-04T11:48:32.188Z,18.31
2018-05-04T11:49:32.215Z,18.29
2018-05-04T11:50:32.131Z,18.26
2018-05-04T11:51:32.114Z,18.29
2018-05-04T11:52:32.098Z,18.34
2018-05-04T11:53:32.062Z,18.29
2018-05-04T11:54:32.036Z,18.34
2018-05-04T11:55:32.008Z,18.40
2018-05-04T11:56:31.987Z,18.40
2018-05-04T11:57:31.960Z,18.29
2018-05-04T11:58:31.941Z,18.44
2018-05-04T11:59:31.909Z,18.40
2018-05-04T12:00:31.894Z,18.33
2018-05-04T12:01:31.862Z,18.29
2018-05-04T12:02:31.852Z,18.35
2018-05-04T12:03:31.825Z,18.40
2018-05-04T12:04:31.825Z,18.43
2018-05-04T12:05:31.772Z,18.47
2018-05-04T12:06:31.745Z,18.45
2018-05-04T12:07:31.717Z,18.53
2018-05-04T12:08:31.695Z,18.53
2018-05-04T12:09:31.669Z,18.45
2018-05-04T12:10:31.644Z,18.53
2018-05-04T12:11:31.621Z,18.47
2018-05-04T12:12:31.594Z,18.52
2018-05-04T12:13:31.573Z,18.52
2018-05-04T12:14:31.545Z,18.53
2018-05-04T12:15:31.527Z,18.50
2018-05-04T12:16:31.577Z,18.55
2018-05-04T12:17:31.480Z,18.62
2018-05-04T12:18:31.456Z,18.63
2018-05-04T12:19:31.422Z,18.65
2018-05-04T12:20:31.408Z,18.66
2018-05-04T12:21:31.380Z,18.74
2018-05-04T12:22:31.354Z,18.81
2018-05-04T12:23:31.332Z,18.93
2018-05-04T12:24:31.303Z,18.92
2018-05-04T12:25:31.284Z,18.88
2018-05-04T12:26:31.264Z,18.88
2018-05-04T12:27:31.231Z,18.88
2018-05-04T12:28:31.210Z,18.86
2018-05-04T12:29:31.197Z,18.89
2018-05-04T12:30:31.180Z,18.95
2018-05-04T12:31:31.138Z,18.88
2018-05-04T12:32:31.124Z,18.83
2018-05-04T12:33:31.088Z,18.84
2018-05-04T12:34:31.068Z,18.81
2018-05-04T12:35:31.038Z,18.88
2018-05-04T12:36:31.017Z,18.93
2018-05-04T12:37:31.006Z,19.04
2018-05-04T12:38:31.014Z,18.98
2018-05-04T12:39:30.948Z,19.09
2018-05-04T12:40:30.921Z,19.18
2018-05-04T12:41:30.896Z,19.14
2018-05-04T12:42:30.955Z,19.11
2018-05-04T12:43:30.845Z,19.04
2018-05-04T12:44:30.822Z,18.95
2018-05-04T12:45:30.802Z,18.98
2018-05-04T12:46:30.828Z,19.04
2018-05-04T12:47:30.754Z,19.15
2018-05-04T12:48:30.724Z,19.21
2018-05-04T12:49:30.706Z,19.37
2018-05-04T12:50:30.683Z,19.48
2018-05-04T12:51:30.651Z,19.45
2018-05-04T12:52:30.635Z,19.45
2018-05-04T12:53:30.627Z,19.48
2018-05-04T12:54:30.589Z,19.40
2018-05-04T12:55:30.554Z,19.40
2018-05-04T12:56:30.539Z,19.44
2018-05-04T12:57:30.506Z,19.52
2018-05-04T12:58:30.482Z,19.52
2018-05-04T12:59:30.466Z,19.66
2018-05-04T13:00:30.438Z,19.76
2018-05-04T13:01:30.420Z,19.76
2018-05-04T13:02:30.396Z,19.86
2018-05-04T13:03:30.364Z,19.94
2018-05-04T13:04:30.406Z,19.96
2018-05-04T13:05:30.315Z,20.00
2018-05-04T13:06:30.291Z,20.04
2018-05-04T13:07:30.276Z,20.09
2018-05-04T13:08:30.243Z,20.07